sensor_id;sensor_type;location;lat;lon;timestamp;P1;durP1;ratioP1;P2;durP2;ratioP2
9763;SDS011;4921;43.214;27.936;2023-11-21T00:02:47;13.20;;;10.13;;
9763;SDS011;4921;43.214;27.936;2023-11-21T00:05:14;12.50;;;9.77;;
9763;SDS011;4921;43.214;27.936;2023-11-21T00:07:41;14.00;;;9.43;;
9763;SDS011;4921;43.214;27.936;2023-11-21T00:10:09;11.47;;;9.57;;
9763;SDS011;4921;43.214;27.936;2023-11-21T00:12:37;14.87;;;9.87;;
9763;SDS011;4921;43.214;27.936;2023-11-21T00:15:07;18.60;;;12.97;;
9763;SDS011;4921;43.214;27.936;2023-11-21T00:17:36;23.73;;;14.93;;
9763;SDS011;4921;43.214;27.936;2023-11-21T00:20:05;19.30;;;16.17;;
9763;SDS011;4921;43.214;27.936;2023-11-21T00:22:33;22.77;;;17.80;;
9763;SDS011;4921;43.214;27.936;2023-11-21T00:25:00;21.27;;;16.87;;
9763;SDS011;4921;43.214;27.936;2023-11-21T00:27:28;24.17;;;18.07;;
9763;SDS011;4921;43.214;27.936;2023-11-21T00:29:55;24.33;;;17.67;;
9763;SDS011;4921;43.214;27.936;2023-11-21T00:32:22;21.00;;;16.13;;
9763;SDS011;4921;43.214;27.936;2023-11-21T00:35:08;19.33;;;14.80;;
9763;SDS011;4921;43.214;27.936;2023-11-21T00:37:35;25.83;;;14.97;;
9763;SDS011;4921;43.214;27.936;2023-11-21T00:40:04;21.87;;;15.10;;
9763;SDS011;4921;43.214;27.936;2023-11-21T00:42:32;19.30;;;15.50;;
9763;SDS011;4921;43.214;27.936;2023-11-21T00:44:59;19.93;;;15.23;;
9763;SDS011;4921;43.214;27.936;2023-11-21T00:47:26;23.57;;;16.03;;
9763;SDS011;4921;43.214;27.936;2023-11-21T00:49:53;19.33;;;16.30;;
9763;SDS011;4921;43.214;27.936;2023-11-21T00:52:23;17.07;;;14.10;;
9763;SDS011;4921;43.214;27.936;2023-11-21T00:54:50;21.93;;;14.47;;
9763;SDS011;4921;43.214;27.936;2023-11-21T00:57:17;18.13;;;13.77;;
9763;SDS011;4921;43.214;27.936;2023-11-21T00:59:44;17.93;;;13.27;;
9763;SDS011;4921;43.214;27.936;2023-11-21T01:02:11;18.63;;;12.53;;
9763;SDS011;4921;43.214;27.936;2023-11-21T01:04:38;16.63;;;13.17;;
9763;SDS011;4921;43.214;27.936;2023-11-21T01:07:05;17.50;;;12.73;;
9763;SDS011;4921;43.214;27.936;2023-11-21T01:09:34;16.77;;;13.77;;
9763;SDS011;4921;43.214;27.936;2023-11-21T01:12:01;18.73;;;12.83;;
9763;SDS011;4921;43.214;27.936;2023-11-21T01:14:28;16.90;;;12.87;;
9763;SDS011;4921;43.214;27.936;2023-11-21T01:16:54;16.40;;;11.97;;
9763;SDS011;4921;43.214;27.936;2023-11-21T01:19:21;16.63;;;11.43;;
9763;SDS011;4921;43.214;27.936;2023-11-21T01:21:48;19.23;;;12.13;;
9763;SDS011;4921;43.214;27.936;2023-11-21T01:24:17;12.90;;;10.50;;
9763;SDS011;4921;43.214;27.936;2023-11-21T01:26:45;16.03;;;11.47;;
9763;SDS011;4921;43.214;27.936;2023-11-21T01:29:13;15.50;;;11.37;;
9763;SDS011;4921;43.214;27.936;2023-11-21T01:31:40;15.23;;;11.30;;
9763;SDS011;4921;43.214;27.936;2023-11-21T01:34:07;16.63;;;11.07;;
9763;SDS011;4921;43.214;27.936;2023-11-21T01:36:34;16.70;;;10.50;;
9763;SDS011;4921;43.214;27.936;2023-11-21T01:39:01;18.57;;;11.77;;
9763;SDS011;4921;43.214;27.936;2023-11-21T01:41:33;18.83;;;11.10;;
9763;SDS011;4921;43.214;27.936;2023-11-21T01:44:01;14.57;;;9.97;;
9763;SDS011;4921;43.214;27.936;2023-11-21T01:46:32;16.07;;;10.90;;
9763;SDS011;4921;43.214;27.936;2023-11-21T01:49:00;16.13;;;10.27;;
9763;SDS011;4921;43.214;27.936;2023-11-21T01:51:27;14.83;;;9.97;;
9763;SDS011;4921;43.214;27.936;2023-11-21T01:53:54;12.77;;;10.90;;
9763;SDS011;4921;43.214;27.936;2023-11-21T01:56:21;15.63;;;10.63;;
9763;SDS011;4921;43.214;27.936;2023-11-21T01:58:49;15.77;;;10.40;;
9763;SDS011;4921;43.214;27.936;2023-11-21T02:01:17;13.03;;;9.80;;
9763;SDS011;4921;43.214;27.936;2023-11-21T02:03:44;14.17;;;11.27;;
9763;SDS011;4921;43.214;27.936;2023-11-21T02:06:11;15.07;;;10.67;;
9763;SDS011;4921;43.214;27.936;2023-11-21T02:08:38;14.93;;;11.20;;
9763;SDS011;4921;43.214;27.936;2023-11-21T02:11:07;13.77;;;11.03;;
9763;SDS011;4921;43.214;27.936;2023-11-21T02:13:38;17.20;;;12.17;;
9763;SDS011;4921;43.214;27.936;2023-11-21T02:16:04;16.60;;;11.83;;
9763;SDS011;4921;43.214;27.936;2023-11-21T02:18:33;16.93;;;11.60;;
9763;SDS011;4921;43.214;27.936;2023-11-21T02:21:00;14.17;;;10.77;;
9763;SDS011;4921;43.214;27.936;2023-11-21T02:23:29;15.80;;;10.87;;
9763;SDS011;4921;43.214;27.936;2023-11-21T02:25:56;13.20;;;10.60;;
9763;SDS011;4921;43.214;27.936;2023-11-21T02:28:23;14.67;;;10.50;;
9763;SDS011;4921;43.214;27.936;2023-11-21T02:30:51;14.60;;;10.40;;
9763;SDS011;4921;43.214;27.936;2023-11-21T02:33:21;11.07;;;9.63;;
9763;SDS011;4921;43.214;27.936;2023-11-21T02:35:48;12.67;;;9.27;;
9763;SDS011;4921;43.214;27.936;2023-11-21T02:38:19;11.13;;;9.10;;
9763;SDS011;4921;43.214;27.936;2023-11-21T02:40:48;10.70;;;8.10;;
9763;SDS011;4921;43.214;27.936;2023-11-21T02:43:15;8.87;;;7.80;;
9763;SDS011;4921;43.214;27.936;2023-11-21T02:45:42;9.77;;;6.97;;
9763;SDS011;4921;43.214;27.936;2023-11-21T02:48:09;8.43;;;7.33;;
9763;SDS011;4921;43.214;27.936;2023-11-21T02:50:36;8.27;;;7.33;;
9763;SDS011;4921;43.214;27.936;2023-11-21T02:53:03;9.57;;;6.30;;
9763;SDS011;4921;43.214;27.936;2023-11-21T02:55:31;9.73;;;6.43;;
9763;SDS011;4921;43.214;27.936;2023-11-21T02:58:01;8.23;;;5.90;;
9763;SDS011;4921;43.214;27.936;2023-11-21T03:00:29;7.23;;;5.97;;
9763;SDS011;4921;43.214;27.936;2023-11-21T03:02:56;7.20;;;5.90;;
9763;SDS011;4921;43.214;27.936;2023-11-21T03:05:22;6.70;;;5.50;;
9763;SDS011;4921;43.214;27.936;2023-11-21T03:07:49;8.03;;;5.33;;
9763;SDS011;4921;43.214;27.936;2023-11-21T03:10:16;5.27;;;4.77;;
9763;SDS011;4921;43.214;27.936;2023-11-21T03:12:44;6.57;;;5.10;;
9763;SDS011;4921;43.214;27.936;2023-11-21T03:15:12;8.23;;;4.97;;
9763;SDS011;4921;43.214;27.936;2023-11-21T03:17:40;6.83;;;5.70;;
9763;SDS011;4921;43.214;27.936;2023-11-21T03:20:07;6.07;;;5.20;;
9763;SDS011;4921;43.214;27.936;2023-11-21T03:22:36;5.23;;;4.77;;
9763;SDS011;4921;43.214;27.936;2023-11-21T03:25:04;6.60;;;5.37;;
9763;SDS011;4921;43.214;27.936;2023-11-21T03:27:35;6.67;;;5.03;;
9763;SDS011;4921;43.214;27.936;2023-11-21T03:30:04;8.93;;;5.60;;
9763;SDS011;4921;43.214;27.936;2023-11-21T03:32:34;8.40;;;5.43;;
9763;SDS011;4921;43.214;27.936;2023-11-21T03:35:01;5.80;;;5.30;;
9763;SDS011;4921;43.214;27.936;2023-11-21T03:37:28;6.37;;;5.77;;
9763;SDS011;4921;43.214;27.936;2023-11-21T03:39:55;7.50;;;4.83;;
9763;SDS011;4921;43.214;27.936;2023-11-21T03:42:22;5.90;;;5.30;;
9763;SDS011;4921;43.214;27.936;2023-11-21T03:44:50;6.70;;;5.30;;
9763;SDS011;4921;43.214;27.936;2023-11-21T03:47:17;6.77;;;5.43;;
9763;SDS011;4921;43.214;27.936;2023-11-21T03:49:46;6.93;;;5.53;;
9763;SDS011;4921;43.214;27.936;2023-11-21T03:52:14;5.53;;;4.97;;
9763;SDS011;4921;43.214;27.936;2023-11-21T03:54:40;9.93;;;5.27;;
9763;SDS011;4921;43.214;27.936;2023-11-21T03:57:08;8.50;;;4.87;;
9763;SDS011;4921;43.214;27.936;2023-11-21T03:59:35;5.43;;;4.50;;
9763;SDS011;4921;43.214;27.936;2023-11-21T04:02:03;5.53;;;4.33;;
9763;SDS011;4921;43.214;27.936;2023-11-21T04:04:30;6.30;;;4.80;;
9763;SDS011;4921;43.214;27.936;2023-11-21T04:06:58;6.70;;;4.80;;
9763;SDS011;4921;43.214;27.936;2023-11-21T04:09:25;5.63;;;5.03;;
9763;SDS011;4921;43.214;27.936;2023-11-21T04:11:53;7.13;;;5.40;;
9763;SDS011;4921;43.214;27.936;2023-11-21T04:14:20;10.03;;;5.63;;
9763;SDS011;4921;43.214;27.936;2023-11-21T04:16:48;8.87;;;6.57;;
9763;SDS011;4921;43.214;27.936;2023-11-21T04:19:15;13.27;;;8.37;;
9763;SDS011;4921;43.214;27.936;2023-11-21T04:21:42;13.83;;;8.97;;
9763;SDS011;4921;43.214;27.936;2023-11-21T04:24:11;12.70;;;9.43;;
9763;SDS011;4921;43.214;27.936;2023-11-21T04:26:38;11.73;;;9.20;;
9763;SDS011;4921;43.214;27.936;2023-11-21T04:29:05;12.70;;;8.77;;
9763;SDS011;4921;43.214;27.936;2023-11-21T04:31:32;12.23;;;8.50;;
9763;SDS011;4921;43.214;27.936;2023-11-21T04:33:59;14.10;;;8.37;;
9763;SDS011;4921;43.214;27.936;2023-11-21T04:36:26;11.50;;;8.40;;
9763;SDS011;4921;43.214;27.936;2023-11-21T04:38:53;10.87;;;8.17;;
9763;SDS011;4921;43.214;27.936;2023-11-21T04:41:21;12.57;;;8.20;;
9763;SDS011;4921;43.214;27.936;2023-11-21T04:43:48;11.63;;;8.37;;
9763;SDS011;4921;43.214;27.936;2023-11-21T04:46:15;11.23;;;7.93;;
9763;SDS011;4921;43.214;27.936;2023-11-21T04:48:42;14.03;;;8.07;;
9763;SDS011;4921;43.214;27.936;2023-11-21T04:51:09;10.13;;;8.03;;
9763;SDS011;4921;43.214;27.936;2023-11-21T04:53:36;13.00;;;8.67;;
9763;SDS011;4921;43.214;27.936;2023-11-21T04:56:04;12.20;;;8.47;;
9763;SDS011;4921;43.214;27.936;2023-11-21T04:58:33;12.03;;;8.63;;
9763;SDS011;4921;43.214;27.936;2023-11-21T05:01:01;14.87;;;9.27;;
9763;SDS011;4921;43.214;27.936;2023-11-21T05:03:28;11.90;;;9.00;;
9763;SDS011;4921;43.214;27.936;2023-11-21T05:05:56;15.90;;;10.23;;
9763;SDS011;4921;43.214;27.936;2023-11-21T05:08:25;15.57;;;9.97;;
9763;SDS011;4921;43.214;27.936;2023-11-21T05:10:52;14.73;;;9.70;;
9763;SDS011;4921;43.214;27.936;2023-11-21T05:13:19;15.57;;;9.27;;
9763;SDS011;4921;43.214;27.936;2023-11-21T05:15:48;14.37;;;8.73;;
9763;SDS011;4921;43.214;27.936;2023-11-21T05:18:15;14.03;;;8.70;;
9763;SDS011;4921;43.214;27.936;2023-11-21T05:20:42;17.60;;;7.83;;
9763;SDS011;4921;43.214;27.936;2023-11-21T05:23:09;10.43;;;7.30;;
9763;SDS011;4921;43.214;27.936;2023-11-21T05:25:37;13.93;;;7.03;;
9763;SDS011;4921;43.214;27.936;2023-11-21T05:28:04;16.00;;;7.43;;
9763;SDS011;4921;43.214;27.936;2023-11-21T05:30:31;12.37;;;6.57;;
9763;SDS011;4921;43.214;27.936;2023-11-21T05:33:00;13.27;;;6.50;;
9763;SDS011;4921;43.214;27.936;2023-11-21T05:35:27;14.90;;;7.23;;
9763;SDS011;4921;43.214;27.936;2023-11-21T05:37:54;10.57;;;6.27;;
9763;SDS011;4921;43.214;27.936;2023-11-21T05:40:21;9.60;;;6.43;;
9763;SDS011;4921;43.214;27.936;2023-11-21T05:42:48;15.17;;;6.37;;
9763;SDS011;4921;43.214;27.936;2023-11-21T05:45:17;10.33;;;5.93;;
9763;SDS011;4921;43.214;27.936;2023-11-21T05:47:44;7.90;;;5.73;;
9763;SDS011;4921;43.214;27.936;2023-11-21T05:50:13;10.87;;;5.77;;
9763;SDS011;4921;43.214;27.936;2023-11-21T05:52:41;8.97;;;5.87;;
9763;SDS011;4921;43.214;27.936;2023-11-21T05:55:09;14.37;;;5.10;;
9763;SDS011;4921;43.214;27.936;2023-11-21T05:57:36;8.30;;;5.57;;
9763;SDS011;4921;43.214;27.936;2023-11-21T06:00:05;13.33;;;5.43;;
9763;SDS011;4921;43.214;27.936;2023-11-21T06:02:37;16.57;;;5.97;;
9763;SDS011;4921;43.214;27.936;2023-11-21T06:05:05;12.73;;;7.50;;
9763;SDS011;4921;43.214;27.936;2023-11-21T06:07:34;14.33;;;8.50;;
9763;SDS011;4921;43.214;27.936;2023-11-21T06:10:02;14.00;;;8.43;;
9763;SDS011;4921;43.214;27.936;2023-11-21T06:12:31;12.23;;;7.93;;
9763;SDS011;4921;43.214;27.936;2023-11-21T06:15:01;11.37;;;9.10;;
9763;SDS011;4921;43.214;27.936;2023-11-21T06:17:30;15.57;;;10.63;;
9763;SDS011;4921;43.214;27.936;2023-11-21T06:19:57;21.20;;;11.67;;
9763;SDS011;4921;43.214;27.936;2023-11-21T06:22:24;18.27;;;12.77;;
9763;SDS011;4921;43.214;27.936;2023-11-21T06:24:52;16.27;;;12.87;;
9763;SDS011;4921;43.214;27.936;2023-11-21T06:27:19;26.43;;;13.07;;
9763;SDS011;4921;43.214;27.936;2023-11-21T06:29:46;20.70;;;13.47;;
9763;SDS011;4921;43.214;27.936;2023-11-21T06:32:13;22.00;;;14.63;;
9763;SDS011;4921;43.214;27.936;2023-11-21T06:34:41;20.40;;;14.13;;
9763;SDS011;4921;43.214;27.936;2023-11-21T06:37:09;18.77;;;13.97;;
9763;SDS011;4921;43.214;27.936;2023-11-21T06:39:37;22.17;;;14.37;;
9763;SDS011;4921;43.214;27.936;2023-11-21T06:42:06;23.97;;;13.73;;
9763;SDS011;4921;43.214;27.936;2023-11-21T06:44:33;26.00;;;13.80;;
9763;SDS011;4921;43.214;27.936;2023-11-21T06:47:00;31.53;;;13.73;;
9763;SDS011;4921;43.214;27.936;2023-11-21T06:49:28;19.67;;;13.10;;
9763;SDS011;4921;43.214;27.936;2023-11-21T06:51:56;19.50;;;13.43;;
9763;SDS011;4921;43.214;27.936;2023-11-21T06:54:23;19.63;;;12.67;;
9763;SDS011;4921;43.214;27.936;2023-11-21T06:56:50;23.07;;;11.87;;
9763;SDS011;4921;43.214;27.936;2023-11-21T06:59:20;18.67;;;10.30;;
9763;SDS011;4921;43.214;27.936;2023-11-21T07:01:46;19.53;;;9.77;;
9763;SDS011;4921;43.214;27.936;2023-11-21T07:04:14;18.23;;;9.77;;
9763;SDS011;4921;43.214;27.936;2023-11-21T07:06:41;20.43;;;10.27;;
9763;SDS011;4921;43.214;27.936;2023-11-21T07:09:09;19.67;;;11.37;;
9763;SDS011;4921;43.214;27.936;2023-11-21T07:11:36;24.57;;;11.87;;
9763;SDS011;4921;43.214;27.936;2023-11-21T07:14:04;25.57;;;12.03;;
9763;SDS011;4921;43.214;27.936;2023-11-21T07:16:34;26.17;;;12.40;;
9763;SDS011;4921;43.214;27.936;2023-11-21T07:19:02;24.73;;;13.00;;
9763;SDS011;4921;43.214;27.936;2023-11-21T07:21:31;21.13;;;12.67;;
9763;SDS011;4921;43.214;27.936;2023-11-21T07:23:58;21.77;;;12.30;;
9763;SDS011;4921;43.214;27.936;2023-11-21T07:26:26;23.03;;;11.80;;
9763;SDS011;4921;43.214;27.936;2023-11-21T07:28:53;20.93;;;11.30;;
9763;SDS011;4921;43.214;27.936;2023-11-21T07:31:20;16.43;;;11.00;;
9763;SDS011;4921;43.214;27.936;2023-11-21T07:33:49;20.63;;;11.53;;
9763;SDS011;4921;43.214;27.936;2023-11-21T07:36:17;13.70;;;8.90;;
9763;SDS011;4921;43.214;27.936;2023-11-21T07:38:46;17.13;;;8.50;;
9763;SDS011;4921;43.214;27.936;2023-11-21T07:41:13;17.40;;;8.97;;
9763;SDS011;4921;43.214;27.936;2023-11-21T07:43:42;14.23;;;9.03;;
9763;SDS011;4921;43.214;27.936;2023-11-21T07:46:10;15.33;;;8.63;;
9763;SDS011;4921;43.214;27.936;2023-11-21T07:48:37;18.17;;;8.30;;
9763;SDS011;4921;43.214;27.936;2023-11-21T07:51:06;17.67;;;9.20;;
9763;SDS011;4921;43.214;27.936;2023-11-21T07:53:33;15.10;;;9.20;;
9763;SDS011;4921;43.214;27.936;2023-11-21T07:56:02;17.20;;;9.43;;
9763;SDS011;4921;43.214;27.936;2023-11-21T07:58:30;16.23;;;10.43;;
9763;SDS011;4921;43.214;27.936;2023-11-21T08:00:58;22.27;;;11.07;;
9763;SDS011;4921;43.214;27.936;2023-11-21T08:03:25;19.53;;;11.63;;
9763;SDS011;4921;43.214;27.936;2023-11-21T08:05:52;22.77;;;10.50;;
9763;SDS011;4921;43.214;27.936;2023-11-21T08:08:21;19.37;;;10.10;;
9763;SDS011;4921;43.214;27.936;2023-11-21T08:10:49;19.50;;;10.33;;
9763;SDS011;4921;43.214;27.936;2023-11-21T08:13:21;19.43;;;9.47;;
9763;SDS011;4921;43.214;27.936;2023-11-21T08:15:48;14.87;;;9.10;;
9763;SDS011;4921;43.214;27.936;2023-11-21T08:18:15;11.37;;;7.40;;
9763;SDS011;4921;43.214;27.936;2023-11-21T08:20:43;9.30;;;6.30;;
9763;SDS011;4921;43.214;27.936;2023-11-21T08:23:13;14.67;;;7.17;;
9763;SDS011;4921;43.214;27.936;2023-11-21T08:25:43;13.10;;;7.43;;
9763;SDS011;4921;43.214;27.936;2023-11-21T08:28:11;12.63;;;7.57;;
9763;SDS011;4921;43.214;27.936;2023-11-21T08:30:39;12.67;;;7.57;;
9763;SDS011;4921;43.214;27.936;2023-11-21T08:33:06;14.40;;;7.90;;
9763;SDS011;4921;43.214;27.936;2023-11-21T08:35:35;14.67;;;7.17;;
9763;SDS011;4921;43.214;27.936;2023-11-21T08:38:02;16.30;;;8.97;;
9763;SDS011;4921;43.214;27.936;2023-11-21T08:40:29;15.90;;;8.97;;
9763;SDS011;4921;43.214;27.936;2023-11-21T08:42:58;16.73;;;8.53;;
9763;SDS011;4921;43.214;27.936;2023-11-21T08:45:25;13.63;;;7.00;;
9763;SDS011;4921;43.214;27.936;2023-11-21T08:47:52;11.90;;;6.33;;
9763;SDS011;4921;43.214;27.936;2023-11-21T08:50:19;13.20;;;5.30;;
9763;SDS011;4921;43.214;27.936;2023-11-21T08:52:47;9.00;;;4.53;;
9763;SDS011;4921;43.214;27.936;2023-11-21T08:55:14;9.90;;;4.53;;
9763;SDS011;4921;43.214;27.936;2023-11-21T08:57:43;9.93;;;4.37;;
9763;SDS011;4921;43.214;27.936;2023-11-21T09:00:12;11.87;;;4.40;;
9763;SDS011;4921;43.214;27.936;2023-11-21T09:02:42;6.73;;;3.53;;
9763;SDS011;4921;43.214;27.936;2023-11-21T09:05:09;8.23;;;3.73;;
9763;SDS011;4921;43.214;27.936;2023-11-21T09:07:37;7.17;;;4.10;;
9763;SDS011;4921;43.214;27.936;2023-11-21T09:10:06;9.77;;;3.80;;
9763;SDS011;4921;43.214;27.936;2023-11-21T09:12:34;8.13;;;4.23;;
9763;SDS011;4921;43.214;27.936;2023-11-21T09:15:02;12.43;;;4.47;;
9763;SDS011;4921;43.214;27.936;2023-11-21T09:17:31;7.90;;;3.97;;
9763;SDS011;4921;43.214;27.936;2023-11-21T09:19:59;12.63;;;4.67;;
9763;SDS011;4921;43.214;27.936;2023-11-21T09:22:26;11.70;;;4.27;;
9763;SDS011;4921;43.214;27.936;2023-11-21T09:24:55;11.63;;;4.40;;
9763;SDS011;4921;43.214;27.936;2023-11-21T09:27:23;7.67;;;4.43;;
9763;SDS011;4921;43.214;27.936;2023-11-21T09:29:51;7.23;;;3.37;;
9763;SDS011;4921;43.214;27.936;2023-11-21T09:32:19;7.77;;;4.03;;
9763;SDS011;4921;43.214;27.936;2023-11-21T09:34:48;10.90;;;4.37;;
9763;SDS011;4921;43.214;27.936;2023-11-21T09:37:15;12.97;;;4.20;;
9763;SDS011;4921;43.214;27.936;2023-11-21T09:39:42;11.80;;;4.70;;
9763;SDS011;4921;43.214;27.936;2023-11-21T09:42:10;10.90;;;4.40;;
9763;SDS011;4921;43.214;27.936;2023-11-21T09:44:43;11.77;;;4.73;;
9763;SDS011;4921;43.214;27.936;2023-11-21T09:47:14;6.87;;;3.90;;
9763;SDS011;4921;43.214;27.936;2023-11-21T09:49:42;9.03;;;4.00;;
9763;SDS011;4921;43.214;27.936;2023-11-21T09:52:18;10.40;;;4.00;;
9763;SDS011;4921;43.214;27.936;2023-11-21T09:54:50;13.43;;;4.60;;
9763;SDS011;4921;43.214;27.936;2023-11-21T09:57:19;9.17;;;3.47;;
9763;SDS011;4921;43.214;27.936;2023-11-21T09:59:48;10.73;;;3.60;;
9763;SDS011;4921;43.214;27.936;2023-11-21T10:02:20;5.53;;;3.47;;
9763;SDS011;4921;43.214;27.936;2023-11-21T10:04:51;6.30;;;3.80;;
9763;SDS011;4921;43.214;27.936;2023-11-21T10:07:19;7.23;;;3.60;;
9763;SDS011;4921;43.214;27.936;2023-11-21T10:09:47;6.83;;;3.30;;
9763;SDS011;4921;43.214;27.936;2023-11-21T10:12:14;8.60;;;3.43;;
9763;SDS011;4921;43.214;27.936;2023-11-21T10:14:42;7.47;;;3.60;;
9763;SDS011;4921;43.214;27.936;2023-11-21T10:17:14;8.90;;;3.00;;
9763;SDS011;4921;43.214;27.936;2023-11-21T10:19:43;7.63;;;3.23;;
9763;SDS011;4921;43.214;27.936;2023-11-21T10:22:13;6.73;;;3.40;;
9763;SDS011;4921;43.214;27.936;2023-11-21T10:24:44;4.50;;;3.17;;
9763;SDS011;4921;43.214;27.936;2023-11-21T10:27:11;6.47;;;3.27;;
9763;SDS011;4921;43.214;27.936;2023-11-21T10:29:39;8.10;;;3.57;;
9763;SDS011;4921;43.214;27.936;2023-11-21T10:32:07;7.40;;;3.87;;
9763;SDS011;4921;43.214;27.936;2023-11-21T10:34:35;5.30;;;3.20;;
9763;SDS011;4921;43.214;27.936;2023-11-21T10:37:11;9.70;;;3.37;;
9763;SDS011;4921;43.214;27.936;2023-11-21T10:39:38;5.07;;;2.90;;
9763;SDS011;4921;43.214;27.936;2023-11-21T10:42:09;7.90;;;3.40;;
9763;SDS011;4921;43.214;27.936;2023-11-21T10:44:36;4.93;;;3.40;;
9763;SDS011;4921;43.214;27.936;2023-11-21T10:47:03;8.27;;;3.60;;
9763;SDS011;4921;43.214;27.936;2023-11-21T10:49:30;7.87;;;3.90;;
9763;SDS011;4921;43.214;27.936;2023-11-21T10:51:57;9.57;;;4.07;;
9763;SDS011;4921;43.214;27.936;2023-11-21T10:54:24;10.80;;;3.27;;
9763;SDS011;4921;43.214;27.936;2023-11-21T10:56:53;7.47;;;3.27;;
9763;SDS011;4921;43.214;27.936;2023-11-21T10:59:25;11.97;;;4.37;;
9763;SDS011;4921;43.214;27.936;2023-11-21T11:01:57;12.10;;;3.77;;
9763;SDS011;4921;43.214;27.936;2023-11-21T11:04:27;11.97;;;3.77;;
9763;SDS011;4921;43.214;27.936;2023-11-21T11:06:54;9.13;;;3.60;;
9763;SDS011;4921;43.214;27.936;2023-11-21T11:09:23;9.70;;;3.10;;
9763;SDS011;4921;43.214;27.936;2023-11-21T11:11:51;7.23;;;3.33;;
9763;SDS011;4921;43.214;27.936;2023-11-21T11:14:19;10.70;;;3.17;;
9763;SDS011;4921;43.214;27.936;2023-11-21T11:16:52;3.90;;;2.70;;
9763;SDS011;4921;43.214;27.936;2023-11-21T11:19:21;8.40;;;3.40;;
9763;SDS011;4921;43.214;27.936;2023-11-21T11:24:46;8.43;;;3.10;;
9763;SDS011;4921;43.214;27.936;2023-11-21T11:27:30;9.47;;;3.67;;
9763;SDS011;4921;43.214;27.936;2023-11-21T11:30:08;9.33;;;3.50;;
9763;SDS011;4921;43.214;27.936;2023-11-21T11:32:47;6.33;;;3.33;;
9763;SDS011;4921;43.214;27.936;2023-11-21T11:35:23;7.90;;;3.20;;
9763;SDS011;4921;43.214;27.936;2023-11-21T11:37:57;13.53;;;4.90;;
9763;SDS011;4921;43.214;27.936;2023-11-21T11:40:25;6.30;;;4.70;;
9763;SDS011;4921;43.214;27.936;2023-11-21T11:43:05;11.30;;;4.60;;
9763;SDS011;4921;43.214;27.936;2023-11-21T11:45:33;10.53;;;6.00;;
9763;SDS011;4921;43.214;27.936;2023-11-21T11:48:08;10.30;;;4.90;;
9763;SDS011;4921;43.214;27.936;2023-11-21T11:50:41;8.17;;;5.17;;
9763;SDS011;4921;43.214;27.936;2023-11-21T11:53:28;7.73;;;5.17;;
9763;SDS011;4921;43.214;27.936;2023-11-21T11:58:48;6.50;;;4.87;;
9763;SDS011;4921;43.214;27.936;2023-11-21T12:01:16;8.30;;;5.70;;
9763;SDS011;4921;43.214;27.936;2023-11-21T12:03:46;8.33;;;5.43;;
9763;SDS011;4921;43.214;27.936;2023-11-21T12:07:01;10.60;;;6.10;;
9763;SDS011;4921;43.214;27.936;2023-11-21T12:09:29;10.83;;;5.43;;
9763;SDS011;4921;43.214;27.936;2023-11-21T12:11:57;9.47;;;6.03;;
9763;SDS011;4921;43.214;27.936;2023-11-21T12:14:25;12.50;;;5.60;;
9763;SDS011;4921;43.214;27.936;2023-11-21T12:16:52;10.07;;;5.50;;
9763;SDS011;4921;43.214;27.936;2023-11-21T12:19:21;10.30;;;5.53;;
9763;SDS011;4921;43.214;27.936;2023-11-21T12:21:49;9.33;;;5.60;;
9763;SDS011;4921;43.214;27.936;2023-11-21T12:24:17;8.37;;;4.80;;
9763;SDS011;4921;43.214;27.936;2023-11-21T12:26:44;6.63;;;4.47;;
9763;SDS011;4921;43.214;27.936;2023-11-21T12:29:11;6.47;;;4.37;;
9763;SDS011;4921;43.214;27.936;2023-11-21T12:31:38;7.13;;;4.30;;
9763;SDS011;4921;43.214;27.936;2023-11-21T12:34:06;4.67;;;3.90;;
9763;SDS011;4921;43.214;27.936;2023-11-21T12:36:38;5.83;;;3.73;;
9763;SDS011;4921;43.214;27.936;2023-11-21T12:39:05;4.23;;;3.83;;
9763;SDS011;4921;43.214;27.936;2023-11-21T12:41:34;6.93;;;3.60;;
9763;SDS011;4921;43.214;27.936;2023-11-21T12:44:01;5.67;;;3.30;;
9763;SDS011;4921;43.214;27.936;2023-11-21T12:46:28;4.20;;;3.63;;
9763;SDS011;4921;43.214;27.936;2023-11-21T12:48:58;5.43;;;4.50;;
9763;SDS011;4921;43.214;27.936;2023-11-21T12:51:25;4.27;;;3.80;;
9763;SDS011;4921;43.214;27.936;2023-11-21T12:53:53;5.83;;;3.90;;
9763;SDS011;4921;43.214;27.936;2023-11-21T12:56:21;4.37;;;3.47;;
9763;SDS011;4921;43.214;27.936;2023-11-21T12:58:49;4.33;;;3.43;;
9763;SDS011;4921;43.214;27.936;2023-11-21T13:01:24;6.87;;;3.73;;
9763;SDS011;4921;43.214;27.936;2023-11-21T13:03:53;4.03;;;3.10;;
9763;SDS011;4921;43.214;27.936;2023-11-21T13:06:20;3.23;;;3.00;;
9763;SDS011;4921;43.214;27.936;2023-11-21T13:08:50;3.10;;;2.77;;
9763;SDS011;4921;43.214;27.936;2023-11-21T13:11:18;4.10;;;2.73;;
9763;SDS011;4921;43.214;27.936;2023-11-21T13:13:45;8.13;;;2.97;;
9763;SDS011;4921;43.214;27.936;2023-11-21T13:16:12;4.50;;;2.60;;
9763;SDS011;4921;43.214;27.936;2023-11-21T13:18:40;5.33;;;2.70;;
9763;SDS011;4921;43.214;27.936;2023-11-21T13:21:08;3.67;;;2.70;;
9763;SDS011;4921;43.214;27.936;2023-11-21T13:23:38;6.77;;;4.40;;
9763;SDS011;4921;43.214;27.936;2023-11-21T13:26:07;3.43;;;2.50;;
9763;SDS011;4921;43.214;27.936;2023-11-21T13:28:36;2.83;;;2.57;;
9763;SDS011;4921;43.214;27.936;2023-11-21T13:31:03;4.50;;;2.90;;
9763;SDS011;4921;43.214;27.936;2023-11-21T13:33:45;5.23;;;2.60;;
9763;SDS011;4921;43.214;27.936;2023-11-21T13:36:16;5.40;;;2.60;;
9763;SDS011;4921;43.214;27.936;2023-11-21T13:38:47;7.77;;;2.73;;
9763;SDS011;4921;43.214;27.936;2023-11-21T13:41:15;3.77;;;2.67;;
9763;SDS011;4921;43.214;27.936;2023-11-21T13:43:44;5.90;;;2.40;;
9763;SDS011;4921;43.214;27.936;2023-11-21T13:46:17;2.83;;;2.20;;
9763;SDS011;4921;43.214;27.936;2023-11-21T13:48:47;2.30;;;2.10;;
9763;SDS011;4921;43.214;27.936;2023-11-21T13:51:18;3.13;;;2.63;;
9763;SDS011;4921;43.214;27.936;2023-11-21T13:53:50;3.13;;;1.80;;
9763;SDS011;4921;43.214;27.936;2023-11-21T13:56:18;2.30;;;2.10;;
9763;SDS011;4921;43.214;27.936;2023-11-21T13:58:50;3.97;;;2.37;;
9763;SDS011;4921;43.214;27.936;2023-11-21T14:01:18;3.50;;;2.23;;
9763;SDS011;4921;43.214;27.936;2023-11-21T14:04:06;3.57;;;2.63;;
9763;SDS011;4921;43.214;27.936;2023-11-21T14:06:44;4.50;;;3.20;;
9763;SDS011;4921;43.214;27.936;2023-11-21T14:09:14;4.13;;;2.93;;
9763;SDS011;4921;43.214;27.936;2023-11-21T14:11:48;5.17;;;2.53;;
9763;SDS011;4921;43.214;27.936;2023-11-21T14:14:18;3.23;;;2.20;;
9763;SDS011;4921;43.214;27.936;2023-11-21T14:16:45;2.70;;;2.50;;
9763;SDS011;4921;43.214;27.936;2023-11-21T14:19:12;6.00;;;2.93;;
9763;SDS011;4921;43.214;27.936;2023-11-21T14:21:42;5.03;;;2.70;;
9763;SDS011;4921;43.214;27.936;2023-11-21T14:24:10;4.53;;;3.13;;
9763;SDS011;4921;43.214;27.936;2023-11-21T14:26:42;3.77;;;2.13;;
9763;SDS011;4921;43.214;27.936;2023-11-21T14:29:11;3.47;;;2.20;;
9763;SDS011;4921;43.214;27.936;2023-11-21T14:31:41;4.10;;;2.27;;
9763;SDS011;4921;43.214;27.936;2023-11-21T14:34:08;2.77;;;2.30;;
9763;SDS011;4921;43.214;27.936;2023-11-21T14:36:37;4.00;;;2.73;;
9763;SDS011;4921;43.214;27.936;2023-11-21T14:39:05;5.20;;;2.97;;
9763;SDS011;4921;43.214;27.936;2023-11-21T14:41:36;4.50;;;2.73;;
9763;SDS011;4921;43.214;27.936;2023-11-21T14:44:04;2.63;;;2.13;;
9763;SDS011;4921;43.214;27.936;2023-11-21T14:46:37;4.87;;;2.20;;
9763;SDS011;4921;43.214;27.936;2023-11-21T14:49:06;5.10;;;2.50;;
9763;SDS011;4921;43.214;27.936;2023-11-21T14:51:44;2.87;;;2.50;;
9763;SDS011;4921;43.214;27.936;2023-11-21T14:54:25;3.17;;;2.60;;
9763;SDS011;4921;43.214;27.936;2023-11-21T14:57:05;8.30;;;2.90;;
9763;SDS011;4921;43.214;27.936;2023-11-21T14:59:36;8.40;;;3.03;;
9763;SDS011;4921;43.214;27.936;2023-11-21T15:02:02;5.60;;;3.30;;
9763;SDS011;4921;43.214;27.936;2023-11-21T15:04:41;5.33;;;4.20;;
9763;SDS011;4921;43.214;27.936;2023-11-21T15:07:08;6.40;;;4.53;;